sensor_id;sensor_type;location;lat;lon;timestamp;pressure;altitude;pressure_sealevel;temperature;humidity
51245;BME280;37840;47.562;18.738;2023-11-19T00:00:26;100307.84;;;2.29;82.00
51245;BME280;37840;47.562;18.738;2023-11-19T00:02:55;100305.84;;;2.39;81.49
51245;BME280;37840;47.562;18.738;2023-11-19T00:05:22;100298.75;;;2.42;80.90
51245;BME280;37840;47.562;18.738;2023-11-19T00:07:47;100296.84;;;2.48;80.74
51245;BME280;37840;47.562;18.738;2023-11-19T00:10:14;100289.69;;;2.53;80.86
51245;BME280;37840;47.562;18.738;2023-11-19T00:12:49;100291.94;;;2.35;80.70
51245;BME280;37840;47.562;18.738;2023-11-19T00:15:17;100296.44;;;2.32;81.08
51245;BME280;37840;47.562;18.738;2023-11-19T00:17:45;100297.41;;;2.28;81.28
51245;BME280;37840;47.562;18.738;2023-11-19T00:20:15;100295.00;;;2.20;81.99
51245;BME280;37840;47.562;18.738;2023-11-19T00:22:42;100295.41;;;2.36;82.45
51245;BME280;37840;47.562;18.738;2023-11-19T00:25:09;100301.94;;;2.52;82.61
51245;BME280;37840;47.562;18.738;2023-11-19T00:27:38;100310.38;;;2.63;82.37
51245;BME280;37840;47.562;18.738;2023-11-19T00:30:05;100301.69;;;2.32;82.15
51245;BME280;37840;47.562;18.738;2023-11-19T00:32:34;100305.75;;;2.42;82.46
51245;BME280;37840;47.562;18.738;2023-11-19T00:35:01;100299.69;;;2.70;81.55
51245;BME280;37840;47.562;18.738;2023-11-19T00:37:28;100296.69;;;2.52;80.48
51245;BME280;37840;47.562;18.738;2023-11-19T00:39:54;100300.69;;;2.04;81.90
51245;BME280;37840;47.562;18.738;2023-11-19T00:42:22;100300.06;;;2.26;81.97
51245;BME280;37840;47.562;18.738;2023-11-19T00:44:52;100300.38;;;2.47;81.18
51245;BME280;37840;47.562;18.738;2023-11-19T00:47:18;100299.13;;;2.29;82.34
51245;BME280;37840;47.562;18.738;2023-11-19T00:49:50;100290.94;;;2.39;82.61
51245;BME280;37840;47.562;18.738;2023-11-19T00:52:23;100289.31;;;2.65;80.97
51245;BME280;37840;47.562;18.738;2023-11-19T00:54:50;100293.12;;;2.55;81.59
51245;BME280;37840;47.562;18.738;2023-11-19T00:57:15;100291.13;;;2.63;80.99
51245;BME280;37840;47.562;18.738;2023-11-19T00:59:42;100282.03;;;2.75;80.35
51245;BME280;37840;47.562;18.738;2023-11-19T01:02:08;100282.91;;;2.45;81.11
51245;BME280;37840;47.562;18.738;2023-11-19T01:04:35;100282.75;;;2.50;81.62
51245;BME280;37840;47.562;18.738;2023-11-19T01:07:02;100283.22;;;2.64;81.12
51245;BME280;37840;47.562;18.738;2023-11-19T01:09:48;100279.16;;;2.82;80.91
51245;BME280;37840;47.562;18.738;2023-11-19T01:12:14;100278.09;;;2.90;79.71
51245;BME280;37840;47.562;18.738;2023-11-19T01:14:40;100279.91;;;2.88;79.60
51245;BME280;37840;47.562;18.738;2023-11-19T01:17:06;100278.81;;;2.93;79.46
51245;BME280;37840;47.562;18.738;2023-11-19T01:19:32;100284.00;;;2.96;78.24
51245;BME280;37840;47.562;18.738;2023-11-19T01:21:58;100288.66;;;2.86;77.95
51245;BME280;37840;47.562;18.738;2023-11-19T01:24:24;100293.72;;;2.35;80.21
51245;BME280;37840;47.562;18.738;2023-11-19T01:26:54;100299.28;;;2.22;81.97
51245;BME280;37840;47.562;18.738;2023-11-19T01:29:20;100303.88;;;2.14;83.07
51245;BME280;37840;47.562;18.738;2023-11-19T01:31:47;100293.66;;;2.36;82.29
51245;BME280;37840;47.562;18.738;2023-11-19T01:34:13;100279.62;;;2.37;82.09
51245;BME280;37840;47.562;18.738;2023-11-19T01:36:39;100275.03;;;2.45;82.07
51245;BME280;37840;47.562;18.738;2023-11-19T01:39:05;100280.78;;;2.58;81.54
51245;BME280;37840;47.562;18.738;2023-11-19T01:41:35;100274.37;;;2.67;80.98
51245;BME280;37840;47.562;18.738;2023-11-19T01:44:07;100265.72;;;2.63;81.08
51245;BME280;37840;47.562;18.738;2023-11-19T01:46:34;100259.22;;;2.77;80.94
51245;BME280;37840;47.562;18.738;2023-11-19T01:49:02;100250.19;;;2.85;79.87
51245;BME280;37840;47.562;18.738;2023-11-19T01:51:28;100248.41;;;2.86;78.82
51245;BME280;37840;47.562;18.738;2023-11-19T01:53:55;100241.34;;;2.88;78.78
51245;BME280;37840;47.562;18.738;2023-11-19T01:56:22;100245.66;;;2.91;78.73
51245;BME280;37840;47.562;18.738;2023-11-19T01:58:49;100248.09;;;2.97;77.80
51245;BME280;37840;47.562;18.738;2023-11-19T02:01:16;100242.00;;;2.95;77.33
51245;BME280;37840;47.562;18.738;2023-11-19T02:03:42;100236.81;;;2.93;77.67
51245;BME280;37840;47.562;18.738;2023-11-19T02:06:08;100234.16;;;2.93;77.75
51245;BME280;37840;47.562;18.738;2023-11-19T02:08:36;100232.31;;;2.97;77.88
51245;BME280;37840;47.562;18.738;2023-11-19T02:11:03;100224.69;;;2.89;77.75
51245;BME280;37840;47.562;18.738;2023-11-19T02:13:30;100226.31;;;2.65;79.29
51245;BME280;37840;47.562;18.738;2023-11-19T02:15:56;100226.66;;;2.53;79.75
51245;BME280;37840;47.562;18.738;2023-11-19T02:18:26;100221.75;;;2.42;80.36
51245;BME280;37840;47.562;18.738;2023-11-19T02:20:58;100216.56;;;2.40;80.61
51245;BME280;37840;47.562;18.738;2023-11-19T02:23:28;100210.00;;;2.26;81.12
51245;BME280;37840;47.562;18.738;2023-11-19T02:29:04;100208.09;;;2.31;81.75
51245;BME280;37840;47.562;18.738;2023-11-19T02:31:32;100214.97;;;2.35;81.71
51245;BME280;37840;47.562;18.738;2023-11-19T02:33:59;100228.97;;;2.34;81.45
51245;BME280;37840;47.562;18.738;2023-11-19T02:36:26;100215.94;;;2.32;81.70
51245;BME280;37840;47.562;18.738;2023-11-19T02:38:52;100210.50;;;2.38;81.50
51245;BME280;37840;47.562;18.738;2023-11-19T02:41:18;100206.56;;;2.23;82.10
51245;BME280;37840;47.562;18.738;2023-11-19T02:43:44;100196.09;;;2.22;82.38
51245;BME280;37840;47.562;18.738;2023-11-19T02:46:10;100197.94;;;1.89;81.53
51245;BME280;37840;47.562;18.738;2023-11-19T02:48:36;100197.69;;;1.67;82.12
51245;BME280;37840;47.562;18.738;2023-11-19T02:51:03;100198.94;;;1.52;82.36
51245;BME280;37840;47.562;18.738;2023-11-19T02:53:32;100200.44;;;1.62;82.54
51245;BME280;37840;47.562;18.738;2023-11-19T02:55:58;100195.84;;;1.70;81.88
51245;BME280;37840;47.562;18.738;2023-11-19T02:58:30;100205.25;;;1.45;83.63
51245;BME280;37840;47.562;18.738;2023-11-19T03:00:56;100197.00;;;1.26;84.88
51245;BME280;37840;47.562;18.738;2023-11-19T03:03:35;100201.19;;;1.33;84.98
51245;BME280;37840;47.562;18.738;2023-11-19T03:06:07;100195.47;;;1.51;84.64
51245;BME280;37840;47.562;18.738;2023-11-19T03:08:35;100191.59;;;1.66;84.43
51245;BME280;37840;47.562;18.738;2023-11-19T03:11:01;100186.75;;;1.82;84.18
51245;BME280;37840;47.562;18.738;2023-11-19T03:13:28;100182.03;;;1.95;83.41
51245;BME280;37840;47.562;18.738;2023-11-19T03:15:54;100180.03;;;2.03;82.11
51245;BME280;37840;47.562;18.738;2023-11-19T03:18:20;100178.19;;;2.07;82.21
51245;BME280;37840;47.562;18.738;2023-11-19T03:20:47;100173.00;;;2.05;81.90
51245;BME280;37840;47.562;18.738;2023-11-19T03:23:13;100179.06;;;2.07;82.28
51245;BME280;37840;47.562;18.738;2023-11-19T03:25:39;100164.94;;;2.11;82.20
51245;BME280;37840;47.562;18.738;2023-11-19T03:28:04;100169.19;;;2.15;81.71
51245;BME280;37840;47.562;18.738;2023-11-19T03:30:32;100170.00;;;2.17;81.91
51245;BME280;37840;47.562;18.738;2023-11-19T03:32:58;100164.50;;;2.25;80.25
51245;BME280;37840;47.562;18.738;2023-11-19T03:35:25;100156.53;;;2.30;79.61
51245;BME280;37840;47.562;18.738;2023-11-19T03:37:51;100149.03;;;2.17;80.05
51245;BME280;37840;47.562;18.738;2023-11-19T03:40:18;100151.28;;;2.00;81.07
51245;BME280;37840;47.562;18.738;2023-11-19T03:42:45;100161.22;;;1.89;81.22
51245;BME280;37840;47.562;18.738;2023-11-19T03:45:11;100144.12;;;1.75;82.39
51245;BME280;37840;47.562;18.738;2023-11-19T03:47:37;100137.84;;;1.81;82.54
51245;BME280;37840;47.562;18.738;2023-11-19T03:50:05;100136.75;;;1.88;82.38
51245;BME280;37840;47.562;18.738;2023-11-19T03:52:31;100133.19;;;1.91;81.78
51245;BME280;37840;47.562;18.738;2023-11-19T03:54:57;100130.34;;;1.98;80.97
51245;BME280;37840;47.562;18.738;2023-11-19T03:57:23;100131.19;;;1.99;80.36
51245;BME280;37840;47.562;18.738;2023-11-19T03:59:49;100130.22;;;2.03;79.86
51245;BME280;37840;47.562;18.738;2023-11-19T04:02:16;100126.06;;;1.96;80.25
51245;BME280;37840;47.562;18.738;2023-11-19T04:04:42;100120.06;;;1.91;80.79
51245;BME280;37840;47.562;18.738;2023-11-19T04:07:08;100114.38;;;1.76;81.22
51245;BME280;37840;47.562;18.738;2023-11-19T04:09:34;100100.84;;;1.60;81.83
51245;BME280;37840;47.562;18.738;2023-11-19T04:12:03;100098.19;;;1.62;82.62
51245;BME280;37840;47.562;18.738;2023-11-19T04:14:29;100100.84;;;1.60;82.50
51245;BME280;37840;47.562;18.738;2023-11-19T04:16:55;100114.22;;;1.51;83.24
51245;BME280;37840;47.562;18.738;2023-11-19T04:19:21;100109.75;;;1.55;82.99
51245;BME280;37840;47.562;18.738;2023-11-19T04:22:06;100101.59;;;1.34;84.15
51245;BME280;37840;47.562;18.738;2023-11-19T04:24:32;100093.63;;;1.37;84.81
51245;BME280;37840;47.562;18.738;2023-11-19T04:26:58;100087.97;;;1.53;84.63
51245;BME280;37840;47.562;18.738;2023-11-19T04:29:24;100083.59;;;1.53;84.69
51245;BME280;37840;47.562;18.738;2023-11-19T04:31:51;100082.47;;;1.62;84.09
51245;BME280;37840;47.562;18.738;2023-11-19T04:34:16;100086.66;;;1.68;83.71
51245;BME280;37840;47.562;18.738;2023-11-19T04:36:42;100100.50;;;1.73;83.91
51245;BME280;37840;47.562;18.738;2023-11-19T04:39:09;100108.22;;;1.77;83.61
51245;BME280;37840;47.562;18.738;2023-11-19T04:41:50;100114.25;;;1.81;83.46
51245;BME280;37840;47.562;18.738;2023-11-19T04:44:17;100115.88;;;1.85;83.32
51245;BME280;37840;47.562;18.738;2023-11-19T04:46:44;100113.31;;;1.83;83.64
51245;BME280;37840;47.562;18.738;2023-11-19T04:49:10;100110.56;;;1.87;83.32
51245;BME280;37840;47.562;18.738;2023-11-19T04:51:40;100119.19;;;1.92;82.23
51245;BME280;37840;47.562;18.738;2023-11-19T04:54:08;100124.28;;;1.96;82.11
51245;BME280;37840;47.562;18.738;2023-11-19T04:56:38;100125.78;;;2.05;81.41
51245;BME280;37840;47.562;18.738;2023-11-19T04:59:04;100121.38;;;2.06;81.49
51245;BME280;37840;47.562;18.738;2023-11-19T05:01:35;100109.06;;;2.08;81.40
51245;BME280;37840;47.562;18.738;2023-11-19T05:04:01;100095.94;;;2.09;81.62
51245;BME280;37840;47.562;18.738;2023-11-19T05:06:31;100096.56;;;2.17;81.10
51245;BME280;37840;47.562;18.738;2023-11-19T05:08:58;100085.44;;;2.09;81.93
51245;BME280;37840;47.562;18.738;2023-11-19T05:11:27;100086.47;;;2.03;82.28
51245;BME280;37840;47.562;18.738;2023-11-19T05:13:54;100107.41;;;2.05;81.90
51245;BME280;37840;47.562;18.738;2023-11-19T05:16:20;100103.28;;;1.98;82.28
51245;BME280;37840;47.562;18.738;2023-11-19T05:18:46;100100.00;;;1.90;83.05
51245;BME280;37840;47.562;18.738;2023-11-19T05:21:13;100096.56;;;1.88;83.67
51245;BME280;37840;47.562;18.738;2023-11-19T05:23:39;100096.56;;;1.88;84.10
51245;BME280;37840;47.562;18.738;2023-11-19T05:26:05;100099.34;;;1.83;85.11
51245;BME280;37840;47.562;18.738;2023-11-19T05:28:31;100094.44;;;1.71;85.26
51245;BME280;37840;47.562;18.738;2023-11-19T05:30:57;100089.88;;;1.77;85.47
51245;BME280;37840;47.562;18.738;2023-11-19T05:33:23;100094.78;;;1.90;85.33
51245;BME280;37840;47.562;18.738;2023-11-19T05:35:49;100099.09;;;1.91;84.83
51245;BME280;37840;47.562;18.738;2023-11-19T05:38:15;100106.38;;;1.81;85.53
51245;BME280;37840;47.562;18.738;2023-11-19T05:40:41;100105.41;;;1.85;85.05
51245;BME280;37840;47.562;18.738;2023-11-19T05:43:07;100094.66;;;1.93;84.85
51245;BME280;37840;47.562;18.738;2023-11-19T05:45:33;100088.41;;;1.97;84.74
51245;BME280;37840;47.562;18.738;2023-11-19T05:47:59;100089.19;;;2.00;84.62
51245;BME280;37840;47.562;18.738;2023-11-19T05:50:25;100086.38;;;2.07;84.91
51245;BME280;37840;47.562;18.738;2023-11-19T05:52:51;100088.84;;;2.13;84.71
51245;BME280;37840;47.562;18.738;2023-11-19T05:55:18;100086.75;;;2.22;84.17
51245;BME280;37840;47.562;18.738;2023-11-19T05:57:45;100086.75;;;2.22;83.88
51245;BME280;37840;47.562;18.738;2023-11-19T06:00:11;100081.19;;;2.05;84.93
51245;BME280;37840;47.562;18.738;2023-11-19T06:02:38;100082.84;;;2.08;85.21
51245;BME280;37840;47.562;18.738;2023-11-19T06:05:05;100086.94;;;2.16;85.24
51245;BME280;37840;47.562;18.738;2023-11-19T06:07:35;100088.13;;;2.06;85.43
51245;BME280;37840;47.562;18.738;2023-11-19T06:10:02;100090.72;;;2.08;85.51
51245;BME280;37840;47.562;18.738;2023-11-19T06:12:33;100078.44;;;2.08;85.81
51245;BME280;37840;47.562;18.738;2023-11-19T06:15:05;100070.50;;;2.11;86.18
51245;BME280;37840;47.562;18.738;2023-11-19T06:17:32;100077.06;;;2.24;86.34
51245;BME280;37840;47.562;18.738;2023-11-19T06:19:58;100077.94;;;1.97;85.65
51245;BME280;37840;47.562;18.738;2023-11-19T06:22:23;100076.41;;;1.90;86.34
51245;BME280;37840;47.562;18.738;2023-11-19T06:24:49;100071.03;;;1.94;86.59
51245;BME280;37840;47.562;18.738;2023-11-19T06:27:15;100061.91;;;2.06;87.02
51245;BME280;37840;47.562;18.738;2023-11-19T06:29:41;100058.97;;;2.17;86.93
51245;BME280;37840;47.562;18.738;2023-11-19T06:32:07;100063.91;;;2.26;86.52
51245;BME280;37840;47.562;18.738;2023-11-19T06:34:34;100058.47;;;2.32;86.24
51245;BME280;37840;47.562;18.738;2023-11-19T06:37:00;100056.53;;;2.37;85.47
51245;BME280;37840;47.562;18.738;2023-11-19T06:39:26;100067.69;;;2.44;85.56
51245;BME280;37840;47.562;18.738;2023-11-19T06:41:51;100059.66;;;2.49;85.14
51245;BME280;37840;47.562;18.738;2023-11-19T06:44:17;100062.22;;;2.52;84.51
51245;BME280;37840;47.562;18.738;2023-11-19T06:46:43;100044.72;;;2.51;84.66
51245;BME280;37840;47.562;18.738;2023-11-19T06:49:09;100047.47;;;2.48;85.13
51245;BME280;37840;47.562;18.738;2023-11-19T06:51:35;100043.28;;;2.42;85.42
51245;BME280;37840;47.562;18.738;2023-11-19T06:54:01;100043.63;;;2.31;85.58
51245;BME280;37840;47.562;18.738;2023-11-19T06:56:27;100042.34;;;2.16;86.92
51245;BME280;37840;47.562;18.738;2023-11-19T06:58:53;100030.84;;;2.20;87.09
51245;BME280;37840;47.562;18.738;2023-11-19T07:01:19;100028.06;;;2.25;87.17
51245;BME280;37840;47.562;18.738;2023-11-19T07:03:46;100030.25;;;2.39;86.45
51245;BME280;37840;47.562;18.738;2023-11-19T07:06:12;100034.59;;;2.40;86.87
51245;BME280;37840;47.562;18.738;2023-11-19T07:08:43;100032.84;;;2.40;86.68
51245;BME280;37840;47.562;18.738;2023-11-19T07:11:13;100044.59;;;2.29;87.59
51245;BME280;37840;47.562;18.738;2023-11-19T07:13:42;100035.81;;;2.30;88.05
51245;BME280;37840;47.562;18.738;2023-11-19T07:16:09;100027.72;;;2.36;88.04
51245;BME280;37840;47.562;18.738;2023-11-19T07:18:37;100036.28;;;2.42;88.32
51245;BME280;37840;47.562;18.738;2023-11-19T07:21:04;100037.78;;;2.50;88.39
51245;BME280;37840;47.562;18.738;2023-11-19T07:23:30;100043.69;;;2.56;88.22
51245;BME280;37840;47.562;18.738;2023-11-19T07:25:56;100033.81;;;2.63;87.48
51245;BME280;37840;47.562;18.738;2023-11-19T07:28:22;100026.50;;;2.73;87.20
51245;BME280;37840;47.562;18.738;2023-11-19T07:30:48;100036.53;;;2.86;86.71
51245;BME280;37840;47.562;18.738;2023-11-19T07:33:15;100030.31;;;2.89;86.88
51245;BME280;37840;47.562;18.738;2023-11-19T07:35:42;100036.06;;;3.00;86.42
51245;BME280;37840;47.562;18.738;2023-11-19T07:38:09;100044.84;;;2.99;86.64
51245;BME280;37840;47.562;18.738;2023-11-19T07:40:35;100052.72;;;2.99;87.08
51245;BME280;37840;47.562;18.738;2023-11-19T07:43:01;100051.81;;;3.00;87.24
51245;BME280;37840;47.562;18.738;2023-11-19T07:45:27;100055.28;;;3.01;87.17
51245;BME280;37840;47.562;18.738;2023-11-19T07:47:53;100053.31;;;3.08;87.26
51245;BME280;37840;47.562;18.738;2023-11-19T07:50:20;100060.94;;;3.15;85.99
51245;BME280;37840;47.562;18.738;2023-11-19T07:52:46;100056.69;;;3.11;86.62
51245;BME280;37840;47.562;18.738;2023-11-19T07:55:12;100048.13;;;3.06;86.86
51245;BME280;37840;47.562;18.738;2023-11-19T07:57:38;100047.41;;;3.01;86.42
51245;BME280;37840;47.562;18.738;2023-11-19T08:00:04;100047.16;;;3.09;85.99
51245;BME280;37840;47.562;18.738;2023-11-19T08:02:30;100041.59;;;3.16;85.24
51245;BME280;37840;47.562;18.738;2023-11-19T08:04:56;100032.03;;;3.15;85.47
51245;BME280;37840;47.562;18.738;2023-11-19T08:07:22;100020.31;;;3.24;85.21
51245;BME280;37840;47.562;18.738;2023-11-19T08:09:48;100012.59;;;3.19;84.52
51245;BME280;37840;47.562;18.738;2023-11-19T08:12:14;100002.81;;;3.23;85.17
51245;BME280;37840;47.562;18.738;2023-11-19T08:14:41;99994.94;;;3.23;85.16
51245;BME280;37840;47.562;18.738;2023-11-19T08:17:07;99978.72;;;3.12;85.96
51245;BME280;37840;47.562;18.738;2023-11-19T08:19:33;99961.75;;;3.20;85.48
51245;BME280;37840;47.562;18.738;2023-11-19T08:21:59;99972.56;;;3.13;86.35
51245;BME280;37840;47.562;18.738;2023-11-19T08:24:25;99975.50;;;3.27;85.20
51245;BME280;37840;47.562;18.738;2023-11-19T08:26:51;99983.13;;;3.35;85.21
51245;BME280;37840;47.562;18.738;2023-11-19T08:29:17;100005.56;;;3.43;84.38
51245;BME280;37840;47.562;18.738;2023-11-19T08:31:43;100014.38;;;3.42;83.79
51245;BME280;37840;47.562;18.738;2023-11-19T08:34:09;99994.16;;;3.44;83.62
51245;BME280;37840;47.562;18.738;2023-11-19T08:36:35;99981.34;;;3.35;84.59
51245;BME280;37840;47.562;18.738;2023-11-19T08:39:01;99985.94;;;3.30;85.28
51245;BME280;37840;47.562;18.738;2023-11-19T08:41:27;99970.59;;;2.94;87.22
51245;BME280;37840;47.562;18.738;2023-11-19T08:43:53;99945.34;;;2.90;87.10
51245;BME280;37840;47.562;18.738;2023-11-19T08:46:19;99990.25;;;3.08;87.35
51245;BME280;37840;47.562;18.738;2023-11-19T08:48:45;99994.69;;;3.05;87.04
51245;BME280;37840;47.562;18.738;2023-11-19T08:51:14;99972.75;;;2.83;89.78
51245;BME280;37840;47.562;18.738;2023-11-19T08:53:40;99961.66;;;2.75;89.32
51245;BME280;37840;47.562;18.738;2023-11-19T08:56:06;99973.50;;;2.61;91.15
51245;BME280;37840;47.562;18.738;2023-11-19T08:58:32;99977.25;;;2.54;92.33
51245;BME280;37840;47.562;18.738;2023-11-19T09:00:58;99987.38;;;2.65;91.08
51245;BME280;37840;47.562;18.738;2023-11-19T09:03:24;99987.06;;;2.74;90.56
51245;BME280;37840;47.562;18.738;2023-11-19T09:05:52;99996.47;;;2.80;91.18
51245;BME280;37840;47.562;18.738;2023-11-19T09:08:18;99989.25;;;2.86;90.16
51245;BME280;37840;47.562;18.738;2023-11-19T09:10:44;99990.97;;;2.88;90.10
51245;BME280;37840;47.562;18.738;2023-11-19T09:13:10;99999.44;;;2.71;90.61
51245;BME280;37840;47.562;18.738;2023-11-19T09:15:36;99994.94;;;2.74;90.65
51245;BME280;37840;47.562;18.738;2023-11-19T09:18:02;99984.75;;;2.65;92.57
51245;BME280;37840;47.562;18.738;2023-11-19T09:20:28;99991.28;;;2.78;91.66
51245;BME280;37840;47.562;18.738;2023-11-19T09:22:58;99986.78;;;2.82;91.49
51245;BME280;37840;47.562;18.738;2023-11-19T09:25:24;99990.12;;;2.87;92.04
51245;BME280;37840;47.562;18.738;2023-11-19T09:27:49;99989.78;;;2.96;92.41
51245;BME280;37840;47.562;18.738;2023-11-19T09:30:15;99987.53;;;2.85;93.24
51245;BME280;37840;47.562;18.738;2023-11-19T09:32:42;99992.31;;;2.74;92.81
51245;BME280;37840;47.562;18.738;2023-11-19T09:35:08;99980.94;;;2.74;92.45
51245;BME280;37840;47.562;18.738;2023-11-19T09:37:34;99970.81;;;2.88;92.15
51245;BME280;37840;47.562;18.738;2023-11-19T09:40:00;99962.09;;;2.88;94.25
51245;BME280;37840;47.562;18.738;2023-11-19T09:42:26;99953.56;;;2.81;92.32
51245;BME280;37840;47.562;18.738;2023-11-19T09:44:53;99958.66;;;2.85;93.07
51245;BME280;37840;47.562;18.738;2023-11-19T09:47:20;99957.72;;;2.86;93.66
51245;BME280;37840;47.562;18.738;2023-11-19T09:49:48;99964.16;;;2.78;93.90
51245;BME280;37840;47.562;18.738;2023-11-19T09:52:15;99946.72;;;2.77;94.72
51245;BME280;37840;47.562;18.738;2023-11-19T09:54:41;99948.78;;;2.67;94.83
51245;BME280;37840;47.562;18.738;2023-11-19T09:57:06;99936.78;;;2.85;94.66
51245;BME280;37840;47.562;18.738;2023-11-19T09:59:33;99932.37;;;2.85;95.37
51245;BME280;37840;47.562;18.738;2023-11-19T10:01:59;99942.38;;;2.99;95.13
51245;BME280;37840;47.562;18.738;2023-11-19T10:04:25;99934.97;;;2.87;95.29
51245;BME280;37840;47.562;18.738;2023-11-19T10:06:55;99927.81;;;2.91;94.17
51245;BME280;37840;47.562;18.738;2023-11-19T10:09:21;99920.81;;;2.91;94.85
51245;BME280;37840;47.562;18.738;2023-11-19T10:11:47;99920.31;;;2.80;95.42
51245;BME280;37840;47.562;18.738;2023-11-19T10:14:14;99912.66;;;2.74;96.14
51245;BME280;37840;47.562;18.738;2023-11-19T10:16:40;99913.25;;;2.82;96.54
51245;BME280;37840;47.562;18.738;2023-11-19T10:19:12;99914.00;;;2.85;95.80
51245;BME280;37840;47.562;18.738;2023-11-19T10:21:45;99909.81;;;2.80;95.21
51245;BME280;37840;47.562;18.738;2023-11-19T10:24:12;99908.78;;;2.84;94.47
51245;BME280;37840;47.562;18.738;2023-11-19T10:26:37;99905.81;;;2.93;92.71
51245;BME280;37840;47.562;18.738;2023-11-19T10:29:04;99901.84;;;3.06;92.81
51245;BME280;37840;47.562;18.738;2023-11-19T10:31:30;99888.63;;;3.08;92.38
51245;BME280;37840;47.562;18.738;2023-11-19T10:33:56;99884.47;;;3.02;93.96
51245;BME280;37840;47.562;18.738;2023-11-19T10:36:22;99880.59;;;3.13;93.61
51245;BME280;37840;47.562;18.738;2023-11-19T10:38:53;99884.81;;;3.17;93.99
51245;BME280;37840;47.562;18.738;2023-11-19T10:41:30;99879.16;;;3.28;92.95
51245;BME280;37840;47.562;18.738;2023-11-19T10:43:57;99882.62;;;3.28;90.74
51245;BME280;37840;47.562;18.738;2023-11-19T10:46:36;99881.34;;;3.38;90.89
51245;BME280;37840;47.562;18.738;2023-11-19T10:49:02;99879.53;;;3.40;90.67
51245;BME280;37840;47.562;18.738;2023-11-19T10:51:29;99863.19;;;3.32;89.83
51245;BME280;37840;47.562;18.738;2023-11-19T10:54:02;99857.38;;;3.24;89.61
51245;BME280;37840;47.562;18.738;2023-11-19T10:56:31;99857.19;;;3.29;90.64
51245;BME280;37840;47.562;18.738;2023-11-19T10:58:59;99855.50;;;3.28;90.38
51245;BME280;37840;47.562;18.738;2023-11-19T11:01:39;99847.28;;;3.35;91.38
51245;BME280;37840;47.562;18.738;2023-11-19T11:04:19;99828.22;;;3.30;91.03
51245;BME280;37840;47.562;18.738;2023-11-19T11:06:48;99824.06;;;3.46;89.76
51245;BME280;37840;47.562;18.738;2023-11-19T11:09:14;99809.25;;;3.44;89.11
51245;BME280;37840;47.562;18.738;2023-11-19T11:11:41;99811.97;;;3.42;89.51
51245;BME280;37840;47.562;18.738;2023-11-19T11:14:12;99814.06;;;3.34;89.70
51245;BME280;37840;47.562;18.738;2023-11-19T11:16:42;99815.12;;;3.51;91.27
51245;BME280;37840;47.562;18.738;2023-11-19T11:19:09;99807.66;;;3.62;89.75
51245;BME280;37840;47.562;18.738;2023-11-19T11:21:37;99806.88;;;3.60;90.22
51245;BME280;37840;47.562;18.738;2023-11-19T11:27:05;99809.09;;;3.69;89.12
51245;BME280;37840;47.562;18.738;2023-11-19T11:29:50;99812.13;;;3.60;89.22
51245;BME280;37840;47.562;18.738;2023-11-19T11:32:36;99803.19;;;3.64;86.49
51245;BME280;37840;47.562;18.738;2023-11-19T11:37:49;99788.31;;;3.63;88.05
51245;BME280;37840;47.562;18.738;2023-11-19T11:40:17;99784.19;;;3.57;86.23
51245;BME280;37840;47.562;18.738;2023-11-19T11:42:47;99779.00;;;3.56;88.02
51245;BME280;37840;47.562;18.738;2023-11-19T11:45:14;99778.41;;;3.49;86.16
51245;BME280;37840;47.562;18.738;2023-11-19T11:55:28;99775.62;;;3.52;89.47
51245;BME280;37840;47.562;18.738;2023-11-19T11:57:55;99774.63;;;3.55;87.85
51245;BME280;37840;47.562;18.738;2023-11-19T12:00:38;99772.53;;;3.42;89.90
51245;BME280;37840;47.562;18.738;2023-11-19T12:03:06;99768.59;;;3.53;88.43
51245;BME280;37840;47.562;18.738;2023-11-19T12:05:33;99767.34;;;3.41;88.99
51245;BME280;37840;47.562;18.738;2023-11-19T12:08:04;99751.44;;;3.44;91.57
51245;BME280;37840;47.562;18.738;2023-11-19T12:10:46;99735.75;;;3.42;91.82
51245;BME280;37840;47.562;18.738;2023-11-19T12:13:14;99731.19;;;3.46;90.51
51245;BME280;37840;47.562;18.738;2023-11-19T12:18:29;99742.37;;;3.51;91.74
51245;BME280;37840;47.562;18.738;2023-11-19T12:20:55;99736.88;;;3.57;90.40
51245;BME280;37840;47.562;18.738;2023-11-19T12:23:22;99731.53;;;3.59;91.16
51245;BME280;37840;47.562;18.738;2023-11-19T12:25:49;99735.88;;;3.60;91.28
51245;BME280;37840;47.562;18.738;2023-11-19T12:28:16;99722.06;;;3.55;89.94
51245;BME280;37840;47.562;18.738;2023-11-19T12:30:45;99713.53;;;3.50;90.51
51245;BME280;37840;47.562;18.738;2023-11-19T12:33:12;99711.22;;;3.42;90.76
51245;BME280;37840;47.562;18.738;2023-11-19T12:35:43;99699.53;;;3.49;92.05
51245;BME280;37840;47.562;18.738;2023-11-19T12:38:19;99699.13;;;3.58;90.22
51245;BME280;37840;47.562;18.738;2023-11-19T12:40:46;99691.66;;;3.49;91.25
51245;BME280;37840;47.562;18.738;2023-11-19T12:43:22;99701.91;;;3.55;91.84
51245;BME280;37840;47.562;18.738;2023-11-19T12:45:48;99685.97;;;3.58;91.63
51245;BME280;37840;47.562;18.738;2023-11-19T12:48:14;99684.03;;;3.63;90.96
51245;BME280;37840;47.562;18.738;2023-11-19T12:50:58;99690.50;;;3.55;91.53
51245;BME280;37840;47.562;18.738;2023-11-19T12:53:26;99690.03;;;3.65;91.04
51245;BME280;37840;47.562;18.738;2023-11-19T12:55:54;99694.44;;;3.65;91.67
51245;BME280;37840;47.562;18.738;2023-11-19T12:58:35;99692.09;;;3.59;91.84
51245;BME280;37840;47.562;18.738;2023-11-19T13:01:15;99689.13;;;3.66;92.02
51245;BME280;37840;47.562;18.738;2023-11-19T13:03:41;99687.28;;;3.68;92.34
51245;BME280;37840;47.562;18.738;2023-11-19T13:06:09;99678.41;;;3.71;93.06
51245;BME280;37840;47.562;18.738;2023-11-19T13:08:42;99682.75;;;3.72;91.86
51245;BME280;37840;47.562;18.738;2023-11-19T13:11:12;99678.63;;;3.66;92.85
51245;BME280;37840;47.562;18.738;2023-11-19T13:13:58;99677.50;;;3.72;92.99